Pagrindinis puslapis
METAR-TAF:

METAR-TAF

Oro uostai :

Karakasas, Venesuela

platuma: 10-36N, ilguma: 066-59W, Aukštis: 43 m

Dabartinis oras

Ataskaita buvo paskelbta 39 minutes, ne 22:03 UTC
Vėjas 8 kt iš Pietų/Pietvakarių
Temperatūra 32°C
Drėgmė 63%
Slėgis 1014 hPa

METAR: SVMI 012203Z AUTO 21008KT NCD 32/24 Q1014

Laikas: 18:42 (22:42 UTC)

Prognozė

Ataskaita buvo paskelbta 6 valandos ir 42 minutes, ne 16:00 UTC
Prognozė galioja nuo 01 metu 18 UTC su 02 metu 18 UTC
Vėjas 5 kt iš Rytų
Matomumas 10 km arba daugiau
Išsisklaidę debesys ne aukštis 1600 ft
Tapsmas
nuo 01 metu 18 UTC su 01 metu 22 UTC
Vėjas 4 kt iš Rytų
Matomumas 10 km arba daugiau
Mažai debesys ne aukštis 1600 ft
Išsisklaidę debesys ne aukštis 7000 ft

TAF: SVMI 011600Z 0118/0218 09005KT 9999 SCT016 TX31/0118Z TN21/0208Z BECMG 0118/0122 09004KT 9999 FEW016 SCT070

Orai ataskaitas ir orų prognozės (METAR, TAF).

turimą stotys yra geltonos ir raudonos taškus žemėlapyje.

Perkelti pele per norėdami pamatyti stoties vardą.

Tada spustelėkite, norėdami matyti oro stebėjimo ir prognozės.

Norėdami pakeisti žemėlapį: spustelėkite ant žalios mygtukų su juodo kryžiaus žemyn,; žalią mygtuką su brūkšneliu, jei norite nutolinti; arba žalių rodyklių gretimoms žemėlapius.


METAR-TAF: